sensor_id;sensor_type;location;lat;lon;timestamp;pressure;altitude;pressure_sealevel;temperature;humidity
48077;BME280;33854;57.708;12.008;2023-01-30T00:00:58;93456.09;;;4.72;100.00
48077;BME280;33854;57.708;12.008;2023-01-30T00:03:24;93507.75;;;4.65;100.00
48077;BME280;33854;57.708;12.008;2023-01-30T00:05:50;93573.06;;;4.66;100.00
48077;BME280;33854;57.708;12.008;2023-01-30T00:08:16;93615.75;;;4.62;100.00
48077;BME280;33854;57.708;12.008;2023-01-30T00:10:42;93679.66;;;4.66;100.00
48077;BME280;33854;57.708;12.008;2023-01-30T00:13:08;93710.03;;;4.57;100.00
48077;BME280;33854;57.708;12.008;2023-01-30T00:15:33;93801.16;;;4.65;100.00
48077;BME280;33854;57.708;12.008;2023-01-30T00:17:59;93871.81;;;4.64;100.00
48077;BME280;33854;57.708;12.008;2023-01-30T00:20:24;93983.75;;;4.63;100.00
48077;BME280;33854;57.708;12.008;2023-01-30T00:22:50;94071.09;;;4.66;100.00
48077;BME280;33854;57.708;12.008;2023-01-30T00:25:15;94187.44;;;4.64;100.00
48077;BME280;33854;57.708;12.008;2023-01-30T00:27:40;94274.16;;;4.65;100.00
48077;BME280;33854;57.708;12.008;2023-01-30T00:30:06;94359.34;;;4.65;100.00
48077;BME280;33854;57.708;12.008;2023-01-30T00:32:32;94419.50;;;4.66;100.00
48077;BME280;33854;57.708;12.008;2023-01-30T00:34:58;94452.44;;;4.64;100.00
48077;BME280;33854;57.708;12.008;2023-01-30T00:37:23;94482.06;;;4.68;100.00
48077;BME280;33854;57.708;12.008;2023-01-30T00:39:48;94502.72;;;4.68;100.00
48077;BME280;33854;57.708;12.008;2023-01-30T00:42:14;94495.94;;;4.67;100.00
48077;BME280;33854;57.708;12.008;2023-01-30T00:44:57;94521.63;;;4.75;100.00
48077;BME280;33854;57.708;12.008;2023-01-30T00:47:42;94512.59;;;4.64;100.00
48077;BME280;33854;57.708;12.008;2023-01-30T00:50:08;94524.78;;;4.70;100.00
48077;BME280;33854;57.708;12.008;2023-01-30T00:52:33;94554.13;;;4.69;100.00
48077;BME280;33854;57.708;12.008;2023-01-30T00:54:59;94612.91;;;4.67;100.00
48077;BME280;33854;57.708;12.008;2023-01-30T00:57:24;94570.44;;;4.70;100.00
48077;BME280;33854;57.708;12.008;2023-01-30T00:59:50;94619.72;;;4.75;100.00
48077;BME280;33854;57.708;12.008;2023-01-30T01:02:15;94676.00;;;4.65;100.00
48077;BME280;33854;57.708;12.008;2023-01-30T01:04:40;94736.44;;;4.70;100.00
48077;BME280;33854;57.708;12.008;2023-01-30T01:07:10;94815.28;;;4.73;100.00
48077;BME280;33854;57.708;12.008;2023-01-30T01:09:36;94925.31;;;4.74;100.00
48077;BME280;33854;57.708;12.008;2023-01-30T01:12:01;95044.41;;;4.71;100.00
48077;BME280;33854;57.708;12.008;2023-01-30T01:14:26;95176.44;;;4.68;100.00
48077;BME280;33854;57.708;12.008;2023-01-30T01:16:52;95341.47;;;4.69;100.00
48077;BME280;33854;57.708;12.008;2023-01-30T01:19:17;95475.72;;;4.69;100.00
48077;BME280;33854;57.708;12.008;2023-01-30T01:21:43;95659.19;;;4.68;100.00
48077;BME280;33854;57.708;12.008;2023-01-30T01:24:11;95843.44;;;4.67;100.00
48077;BME280;33854;57.708;12.008;2023-01-30T01:26:37;95903.59;;;4.59;100.00
48077;BME280;33854;57.708;12.008;2023-01-30T01:29:03;95912.38;;;4.48;100.00
48077;BME280;33854;57.708;12.008;2023-01-30T01:31:29;95886.25;;;4.51;100.00
48077;BME280;33854;57.708;12.008;2023-01-30T01:33:55;95931.81;;;4.60;100.00
48077;BME280;33854;57.708;12.008;2023-01-30T01:36:21;95863.28;;;4.66;100.00
48077;BME280;33854;57.708;12.008;2023-01-30T01:38:47;95842.63;;;4.66;100.00
48077;BME280;33854;57.708;12.008;2023-01-30T01:41:14;95791.31;;;4.63;100.00
48077;BME280;33854;57.708;12.008;2023-01-30T01:44:18;95746.78;;;4.61;100.00
48077;BME280;33854;57.708;12.008;2023-01-30T01:47:04;95733.22;;;4.59;100.00
48077;BME280;33854;57.708;12.008;2023-01-30T01:49:32;95716.09;;;4.58;100.00
48077;BME280;33854;57.708;12.008;2023-01-30T01:52:10;95721.72;;;4.53;100.00
48077;BME280;33854;57.708;12.008;2023-01-30T01:57:14;95708.28;;;4.42;100.00
48077;BME280;33854;57.708;12.008;2023-01-30T01:59:51;95731.19;;;4.45;100.00
48077;BME280;33854;57.708;12.008;2023-01-30T02:02:21;95607.81;;;4.48;100.00
48077;BME280;33854;57.708;12.008;2023-01-30T02:04:48;95622.47;;;4.48;100.00
48077;BME280;33854;57.708;12.008;2023-01-30T02:07:56;95570.38;;;4.44;100.00
48077;BME280;33854;57.708;12.008;2023-01-30T02:13:02;95538.78;;;4.50;100.00
48077;BME280;33854;57.708;12.008;2023-01-30T02:15:27;95511.03;;;4.52;100.00
48077;BME280;33854;57.708;12.008;2023-01-30T02:17:53;95491.66;;;4.56;100.00
48077;BME280;33854;57.708;12.008;2023-01-30T02:31:31;95327.66;;;4.38;100.00
48077;BME280;33854;57.708;12.008;2023-01-30T02:37:07;95301.97;;;4.60;100.00
48077;BME280;33854;57.708;12.008;2023-01-30T02:40:04;95274.06;;;4.48;100.00
48077;BME280;33854;57.708;12.008;2023-01-30T02:45:33;95267.13;;;4.48;100.00
48077;BME280;33854;57.708;12.008;2023-01-30T02:48:03;95232.63;;;4.49;100.00
48077;BME280;33854;57.708;12.008;2023-01-30T02:50:34;95221.16;;;4.52;100.00
48077;BME280;33854;57.708;12.008;2023-01-30T02:53:03;95206.81;;;4.49;100.00
48077;BME280;33854;57.708;12.008;2023-01-30T02:55:30;95209.03;;;4.60;100.00
48077;BME280;33854;57.708;12.008;2023-01-30T02:57:56;95187.25;;;4.63;100.00
48077;BME280;33854;57.708;12.008;2023-01-30T03:08:31;95141.59;;;4.64;100.00
48077;BME280;33854;57.708;12.008;2023-01-30T03:11:04;95164.19;;;4.62;100.00
48077;BME280;33854;57.708;12.008;2023-01-30T03:13:48;95146.47;;;4.58;100.00
48077;BME280;33854;57.708;12.008;2023-01-30T03:16:35;95154.88;;;4.52;100.00
48077;BME280;33854;57.708;12.008;2023-01-30T03:19:03;95174.88;;;4.50;100.00
48077;BME280;33854;57.708;12.008;2023-01-30T03:21:30;95190.81;;;4.54;100.00
48077;BME280;33854;57.708;12.008;2023-01-30T03:23:56;95153.72;;;4.55;100.00
48077;BME280;33854;57.708;12.008;2023-01-30T03:26:25;95131.13;;;4.57;100.00
48077;BME280;33854;57.708;12.008;2023-01-30T03:28:52;95139.38;;;4.52;100.00
48077;BME280;33854;57.708;12.008;2023-01-30T03:31:18;95133.41;;;4.52;100.00
48077;BME280;33854;57.708;12.008;2023-01-30T03:33:43;95170.69;;;4.49;100.00
48077;BME280;33854;57.708;12.008;2023-01-30T03:36:09;95131.16;;;4.49;100.00
48077;BME280;33854;57.708;12.008;2023-01-30T03:38:35;95136.63;;;4.54;100.00
48077;BME280;33854;57.708;12.008;2023-01-30T03:41:01;95127.44;;;4.51;100.00
48077;BME280;33854;57.708;12.008;2023-01-30T03:43:28;95117.94;;;4.52;100.00
48077;BME280;33854;57.708;12.008;2023-01-30T03:45:53;95136.97;;;4.51;100.00
48077;BME280;33854;57.708;12.008;2023-01-30T03:48:18;95156.31;;;4.55;100.00
48077;BME280;33854;57.708;12.008;2023-01-30T03:50:44;95157.75;;;4.57;100.00
48077;BME280;33854;57.708;12.008;2023-01-30T03:53:09;95152.59;;;4.57;100.00
48077;BME280;33854;57.708;12.008;2023-01-30T03:55:35;95126.97;;;4.48;100.00
48077;BME280;33854;57.708;12.008;2023-01-30T03:58:00;95148.28;;;4.50;100.00
48077;BME280;33854;57.708;12.008;2023-01-30T04:00:26;95147.28;;;4.51;100.00
48077;BME280;33854;57.708;12.008;2023-01-30T04:02:51;95137.09;;;4.57;100.00
48077;BME280;33854;57.708;12.008;2023-01-30T04:05:19;95188.38;;;4.60;100.00
48077;BME280;33854;57.708;12.008;2023-01-30T04:07:44;95190.00;;;4.62;100.00
48077;BME280;33854;57.708;12.008;2023-01-30T04:10:10;95187.25;;;4.63;100.00
48077;BME280;33854;57.708;12.008;2023-01-30T04:12:40;95217.88;;;4.66;100.00
48077;BME280;33854;57.708;12.008;2023-01-30T04:15:06;95237.44;;;4.60;100.00
48077;BME280;33854;57.708;12.008;2023-01-30T04:17:31;95233.72;;;4.55;100.00
48077;BME280;33854;57.708;12.008;2023-01-30T04:19:57;95249.06;;;4.48;100.00
48077;BME280;33854;57.708;12.008;2023-01-30T04:22:22;95246.38;;;4.42;100.00
48077;BME280;33854;57.708;12.008;2023-01-30T04:24:48;95225.06;;;4.40;100.00
48077;BME280;33854;57.708;12.008;2023-01-30T04:27:13;95186.25;;;4.33;100.00
48077;BME280;33854;57.708;12.008;2023-01-30T04:29:38;95188.50;;;4.28;100.00
48077;BME280;33854;57.708;12.008;2023-01-30T04:32:04;95175.94;;;4.25;100.00
48077;BME280;33854;57.708;12.008;2023-01-30T04:34:29;95158.72;;;4.18;100.00
48077;BME280;33854;57.708;12.008;2023-01-30T04:36:55;95156.63;;;4.13;100.00
48077;BME280;33854;57.708;12.008;2023-01-30T04:39:20;95186.47;;;4.16;100.00
48077;BME280;33854;57.708;12.008;2023-01-30T04:41:46;95185.78;;;4.14;100.00
48077;BME280;33854;57.708;12.008;2023-01-30T04:44:11;95212.41;;;4.14;100.00
48077;BME280;33854;57.708;12.008;2023-01-30T04:46:36;95195.97;;;4.15;100.00
48077;BME280;33854;57.708;12.008;2023-01-30T04:49:02;95219.66;;;4.19;100.00
48077;BME280;33854;57.708;12.008;2023-01-30T04:51:27;95230.44;;;4.22;100.00
48077;BME280;33854;57.708;12.008;2023-01-30T04:53:53;95230.91;;;4.26;100.00
48077;BME280;33854;57.708;12.008;2023-01-30T04:56:18;95249.28;;;4.23;100.00
48077;BME280;33854;57.708;12.008;2023-01-30T04:58:43;95270.75;;;4.23;100.00
48077;BME280;33854;57.708;12.008;2023-01-30T05:01:13;95262.81;;;4.25;100.00
48077;BME280;33854;57.708;12.008;2023-01-30T05:03:39;95236.72;;;4.20;100.00
48077;BME280;33854;57.708;12.008;2023-01-30T05:06:04;95272.66;;;4.29;100.00
48077;BME280;33854;57.708;12.008;2023-01-30T05:08:30;95198.16;;;4.34;100.00
48077;BME280;33854;57.708;12.008;2023-01-30T05:10:56;95192.66;;;4.37;100.00
48077;BME280;33854;57.708;12.008;2023-01-30T05:13:22;95123.97;;;4.36;100.00
48077;BME280;33854;57.708;12.008;2023-01-30T05:15:47;95123.81;;;4.38;100.00
48077;BME280;33854;57.708;12.008;2023-01-30T05:18:13;95128.78;;;4.39;100.00
48077;BME280;33854;57.708;12.008;2023-01-30T05:20:38;95157.81;;;4.41;100.00
48077;BME280;33854;57.708;12.008;2023-01-30T05:23:03;95131.22;;;4.41;100.00
48077;BME280;33854;57.708;12.008;2023-01-30T05:25:29;95156.22;;;4.40;100.00
48077;BME280;33854;57.708;12.008;2023-01-30T05:27:54;95142.69;;;4.38;100.00
48077;BME280;33854;57.708;12.008;2023-01-30T05:30:21;95145.59;;;4.35;100.00
48077;BME280;33854;57.708;12.008;2023-01-30T05:32:46;95157.69;;;4.35;100.00
48077;BME280;33854;57.708;12.008;2023-01-30T05:35:12;95143.81;;;4.36;100.00
48077;BME280;33854;57.708;12.008;2023-01-30T05:37:38;95136.41;;;4.33;100.00
48077;BME280;33854;57.708;12.008;2023-01-30T05:40:04;95166.56;;;4.32;100.00
48077;BME280;33854;57.708;12.008;2023-01-30T05:42:30;95199.91;;;4.34;100.00
48077;BME280;33854;57.708;12.008;2023-01-30T05:44:55;95159.97;;;4.30;100.00
48077;BME280;33854;57.708;12.008;2023-01-30T05:47:21;95146.72;;;4.33;100.00
48077;BME280;33854;57.708;12.008;2023-01-30T05:49:46;95166.38;;;4.34;100.00
48077;BME280;33854;57.708;12.008;2023-01-30T05:52:12;95134.16;;;4.30;100.00
48077;BME280;33854;57.708;12.008;2023-01-30T05:54:37;95158.50;;;4.35;100.00
48077;BME280;33854;57.708;12.008;2023-01-30T05:57:02;95144.16;;;4.33;100.00
48077;BME280;33854;57.708;12.008;2023-01-30T05:59:28;95153.19;;;4.29;100.00
48077;BME280;33854;57.708;12.008;2023-01-30T06:01:53;95148.34;;;4.26;100.00
48077;BME280;33854;57.708;12.008;2023-01-30T06:04:19;95137.22;;;4.25;100.00
48077;BME280;33854;57.708;12.008;2023-01-30T06:06:44;95150.97;;;4.18;100.00
48077;BME280;33854;57.708;12.008;2023-01-30T06:09:10;95167.56;;;4.23;100.00
48077;BME280;33854;57.708;12.008;2023-01-30T06:11:35;95181.25;;;4.24;100.00
48077;BME280;33854;57.708;12.008;2023-01-30T06:14:01;95174.97;;;4.26;100.00
48077;BME280;33854;57.708;12.008;2023-01-30T06:16:27;95177.53;;;4.26;100.00
48077;BME280;33854;57.708;12.008;2023-01-30T06:18:52;95161.09;;;4.27;100.00
48077;BME280;33854;57.708;12.008;2023-01-30T06:21:18;95170.00;;;4.17;100.00
48077;BME280;33854;57.708;12.008;2023-01-30T06:23:43;95155.31;;;4.17;100.00
48077;BME280;33854;57.708;12.008;2023-01-30T06:26:10;95164.69;;;4.18;100.00
48077;BME280;33854;57.708;12.008;2023-01-30T06:28:36;95135.66;;;4.16;100.00
48077;BME280;33854;57.708;12.008;2023-01-30T06:31:01;95180.31;;;4.17;100.00
48077;BME280;33854;57.708;12.008;2023-01-30T06:33:27;95162.91;;;4.19;100.00
48077;BME280;33854;57.708;12.008;2023-01-30T06:35:52;95145.63;;;4.19;100.00
48077;BME280;33854;57.708;12.008;2023-01-30T06:38:18;95145.47;;;4.21;100.00
48077;BME280;33854;57.708;12.008;2023-01-30T06:40:45;95164.97;;;4.23;100.00
48077;BME280;33854;57.708;12.008;2023-01-30T06:43:11;95144.34;;;4.23;100.00
48077;BME280;33854;57.708;12.008;2023-01-30T06:45:36;95176.72;;;4.26;100.00
48077;BME280;33854;57.708;12.008;2023-01-30T06:48:02;95165.31;;;4.20;100.00
48077;BME280;33854;57.708;12.008;2023-01-30T06:50:29;95201.88;;;4.32;100.00
48077;BME280;33854;57.708;12.008;2023-01-30T06:52:55;95221.56;;;4.33;100.00
48077;BME280;33854;57.708;12.008;2023-01-30T06:55:24;95252.81;;;4.38;100.00
48077;BME280;33854;57.708;12.008;2023-01-30T06:58:00;95312.16;;;4.38;100.00
48077;BME280;33854;57.708;12.008;2023-01-30T07:00:25;95278.44;;;4.39;100.00
48077;BME280;33854;57.708;12.008;2023-01-30T07:02:51;95257.47;;;4.42;100.00
48077;BME280;33854;57.708;12.008;2023-01-30T07:05:16;95209.78;;;4.30;100.00
48077;BME280;33854;57.708;12.008;2023-01-30T07:07:42;95241.34;;;4.40;100.00
48077;BME280;33854;57.708;12.008;2023-01-30T07:10:11;95197.81;;;4.37;100.00
48077;BME280;33854;57.708;12.008;2023-01-30T07:12:37;95206.19;;;4.39;100.00
48077;BME280;33854;57.708;12.008;2023-01-30T07:15:04;95231.53;;;4.36;100.00
48077;BME280;33854;57.708;12.008;2023-01-30T07:17:30;95237.97;;;4.40;100.00
48077;BME280;33854;57.708;12.008;2023-01-30T07:19:56;95176.38;;;4.37;100.00
48077;BME280;33854;57.708;12.008;2023-01-30T07:22:21;95190.09;;;4.37;100.00
48077;BME280;33854;57.708;12.008;2023-01-30T07:24:47;95162.03;;;4.34;100.00
48077;BME280;33854;57.708;12.008;2023-01-30T07:27:12;95176.88;;;4.32;100.00
48077;BME280;33854;57.708;12.008;2023-01-30T07:29:38;95201.75;;;4.17;100.00
48077;BME280;33854;57.708;12.008;2023-01-30T07:32:05;95202.38;;;4.27;100.00
48077;BME280;33854;57.708;12.008;2023-01-30T07:34:31;95217.53;;;4.22;100.00
48077;BME280;33854;57.708;12.008;2023-01-30T07:36:56;95185.78;;;4.22;100.00
48077;BME280;33854;57.708;12.008;2023-01-30T07:39:21;95202.38;;;4.19;100.00
48077;BME280;33854;57.708;12.008;2023-01-30T07:41:47;95209.50;;;4.17;100.00
48077;BME280;33854;57.708;12.008;2023-01-30T07:44:13;95190.00;;;4.15;100.00
48077;BME280;33854;57.708;12.008;2023-01-30T07:46:38;95149.19;;;4.18;100.00
48077;BME280;33854;57.708;12.008;2023-01-30T07:49:04;95162.13;;;4.10;100.00
48077;BME280;33854;57.708;12.008;2023-01-30T07:51:31;95164.19;;;4.15;100.00
48077;BME280;33854;57.708;12.008;2023-01-30T07:53:57;95159.66;;;4.17;100.00
48077;BME280;33854;57.708;12.008;2023-01-30T07:56:22;95136.00;;;4.13;100.00
48077;BME280;33854;57.708;12.008;2023-01-30T07:58:49;95136.78;;;4.14;100.00
48077;BME280;33854;57.708;12.008;2023-01-30T08:01:15;95136.31;;;4.18;100.00
48077;BME280;33854;57.708;12.008;2023-01-30T08:03:41;95142.09;;;4.20;100.00
48077;BME280;33854;57.708;12.008;2023-01-30T08:06:08;95159.81;;;4.23;100.00
48077;BME280;33854;57.708;12.008;2023-01-30T08:08:33;95123.72;;;4.23;100.00
48077;BME280;33854;57.708;12.008;2023-01-30T08:10:59;95140.63;;;4.26;100.00
48077;BME280;33854;57.708;12.008;2023-01-30T08:13:24;95129.34;;;4.27;100.00
48077;BME280;33854;57.708;12.008;2023-01-30T08:15:49;95154.97;;;4.28;100.00
48077;BME280;33854;57.708;12.008;2023-01-30T08:18:15;95149.13;;;4.34;100.00
48077;BME280;33854;57.708;12.008;2023-01-30T08:20:40;95122.41;;;4.27;100.00
48077;BME280;33854;57.708;12.008;2023-01-30T08:23:07;95143.81;;;4.36;100.00
48077;BME280;33854;57.708;12.008;2023-01-30T08:25:33;95139.44;;;4.36;100.00
48077;BME280;33854;57.708;12.008;2023-01-30T08:28:03;95188.31;;;4.38;100.00
48077;BME280;33854;57.708;12.008;2023-01-30T08:30:28;95128.00;;;4.39;100.00
48077;BME280;33854;57.708;12.008;2023-01-30T08:32:55;95130.34;;;4.48;100.00
48077;BME280;33854;57.708;12.008;2023-01-30T08:35:21;95148.09;;;4.51;100.00
48077;BME280;33854;57.708;12.008;2023-01-30T08:37:46;95107.75;;;4.58;100.00
48077;BME280;33854;57.708;12.008;2023-01-30T08:40:12;95182.88;;;4.64;100.00
48077;BME280;33854;57.708;12.008;2023-01-30T08:42:38;95131.22;;;4.72;100.00
48077;BME280;33854;57.708;12.008;2023-01-30T08:45:04;95141.81;;;4.77;100.00
48077;BME280;33854;57.708;12.008;2023-01-30T08:47:29;95170.69;;;4.80;100.00
48077;BME280;33854;57.708;12.008;2023-01-30T08:49:55;95174.13;;;4.73;100.00
48077;BME280;33854;57.708;12.008;2023-01-30T08:52:20;95228.13;;;4.82;100.00
48077;BME280;33854;57.708;12.008;2023-01-30T08:54:46;95227.97;;;4.84;100.00
48077;BME280;33854;57.708;12.008;2023-01-30T08:57:13;95234.56;;;4.86;100.00
48077;BME280;33854;57.708;12.008;2023-01-30T08:59:38;95223.91;;;4.89;100.00
48077;BME280;33854;57.708;12.008;2023-01-30T09:02:04;95225.97;;;4.94;100.00
48077;BME280;33854;57.708;12.008;2023-01-30T09:04:30;95208.75;;;4.86;100.00
48077;BME280;33854;57.708;12.008;2023-01-30T09:06:56;95268.00;;;4.88;100.00
48077;BME280;33854;57.708;12.008;2023-01-30T09:09:21;95250.41;;;4.83;100.00
48077;BME280;33854;57.708;12.008;2023-01-30T09:11:46;95253.75;;;4.92;100.00
48077;BME280;33854;57.708;12.008;2023-01-30T09:14:13;95258.44;;;4.88;100.00
48077;BME280;33854;57.708;12.008;2023-01-30T09:16:38;95272.47;;;4.94;100.00
48077;BME280;33854;57.708;12.008;2023-01-30T09:19:04;95275.38;;;4.91;100.00
48077;BME280;33854;57.708;12.008;2023-01-30T09:21:29;95265.56;;;4.86;100.00
48077;BME280;33854;57.708;12.008;2023-01-30T09:23:56;95281.88;;;4.87;100.00
48077;BME280;33854;57.708;12.008;2023-01-30T09:26:22;95274.44;;;4.84;100.00
48077;BME280;33854;57.708;12.008;2023-01-30T09:28:47;95242.78;;;4.90;100.00
48077;BME280;33854;57.708;12.008;2023-01-30T09:31:13;95231.94;;;4.94;100.00
48077;BME280;33854;57.708;12.008;2023-01-30T09:33:38;95217.56;;;5.00;100.00
48077;BME280;33854;57.708;12.008;2023-01-30T09:36:04;94828.09;;;5.10;100.00
48077;BME280;33854;57.708;12.008;2023-01-30T09:38:30;94815.44;;;5.15;100.00
48077;BME280;33854;57.708;12.008;2023-01-30T09:46:14;94821.59;;;5.14;100.00
48077;BME280;33854;57.708;12.008;2023-01-30T09:51:30;94790.78;;;5.12;100.00
48077;BME280;33854;57.708;12.008;2023-01-30T09:54:09;94795.13;;;5.12;100.00
48077;BME280;33854;57.708;12.008;2023-01-30T09:56:38;94811.25;;;5.14;100.00
48077;BME280;33854;57.708;12.008;2023-01-30T09:59:04;94933.19;;;5.09;100.00
48077;BME280;33854;57.708;12.008;2023-01-30T10:04:23;94863.38;;;5.03;100.00
48077;BME280;33854;57.708;12.008;2023-01-30T10:10:02;94847.81;;;4.96;100.00
48077;BME280;33854;57.708;12.008;2023-01-30T10:15:51;94877.34;;;4.94;100.00
48077;BME280;33854;57.708;12.008;2023-01-30T10:21:14;94898.09;;;5.00;100.00
48077;BME280;33854;57.708;12.008;2023-01-30T10:24:06;94895.63;;;5.07;100.00
48077;BME280;33854;57.708;12.008;2023-01-30T10:26:35;94910.50;;;5.05;100.00
48077;BME280;33854;57.708;12.008;2023-01-30T10:29:19;94917.59;;;5.03;100.00
48077;BME280;33854;57.708;12.008;2023-01-30T10:31:56;94913.09;;;5.05;100.00
48077;BME280;33854;57.708;12.008;2023-01-30T10:34:30;94925.34;;;5.03;100.00
48077;BME280;33854;57.708;12.008;2023-01-30T10:37:38;94939.19;;;5.10;100.00
48077;BME280;33854;57.708;12.008;2023-01-30T10:40:25;94964.19;;;5.09;100.00
48077;BME280;33854;57.708;12.008;2023-01-30T10:43:12;94980.78;;;5.15;100.00
48077;BME280;33854;57.708;12.008;2023-01-30T10:48:44;94953.25;;;5.22;100.00
48077;BME280;33854;57.708;12.008;2023-01-30T10:51:32;94989.78;;;5.19;100.00
48077;BME280;33854;57.708;12.008;2023-01-30T10:54:07;95025.88;;;5.27;100.00
48077;BME280;33854;57.708;12.008;2023-01-30T10:57:24;95059.81;;;5.24;100.00
48077;BME280;33854;57.708;12.008;2023-01-30T11:00:02;95064.56;;;5.35;100.00
48077;BME280;33854;57.708;12.008;2023-01-30T11:05:14;95150.38;;;5.45;100.00
48077;BME280;33854;57.708;12.008;2023-01-30T11:07:42;95210.69;;;5.38;100.00
48077;BME280;33854;57.708;12.008;2023-01-30T11:10:26;95268.66;;;5.43;100.00
48077;BME280;33854;57.708;12.008;2023-01-30T11:12:59;95301.34;;;5.36;100.00
48077;BME280;33854;57.708;12.008;2023-01-30T11:15:38;95264.28;;;5.44;100.00
48077;BME280;33854;57.708;12.008;2023-01-30T11:18:05;95240.50;;;5.48;100.00
48077;BME280;33854;57.708;12.008;2023-01-30T11:20:38;95254.53;;;5.54;100.00
48077;BME280;33854;57.708;12.008;2023-01-30T11:23:07;95254.38;;;5.55;100.00
48077;BME280;33854;57.708;12.008;2023-01-30T11:25:54;95254.19;;;5.57;100.00
48077;BME280;33854;57.708;12.008;2023-01-30T11:28:20;95264.44;;;5.50;100.00
48077;BME280;33854;57.708;12.008;2023-01-30T11:30:55;95270.75;;;5.48;100.00
48077;BME280;33854;57.708;12.008;2023-01-30T11:33:23;95255.97;;;5.56;100.00
48077;BME280;33854;57.708;12.008;2023-01-30T11:36:03;95231.03;;;5.63;100.00
48077;BME280;33854;57.708;12.008;2023-01-30T11:38:34;95246.31;;;5.73;100.00
48077;BME280;33854;57.708;12.008;2023-01-30T11:41:18;95255.31;;;5.77;100.00
48077;BME280;33854;57.708;12.008;2023-01-30T11:43:45;95264.66;;;5.63;100.00
48077;BME280;33854;57.708;12.008;2023-01-30T11:46:15;95269.13;;;5.69;100.00
48077;BME280;33854;57.708;12.008;2023-01-30T11:51:13;95291.25;;;5.72;100.00
48077;BME280;33854;57.708;12.008;2023-01-30T11:53:43;95304.13;;;5.80;100.00
48077;BME280;33854;57.708;12.008;2023-01-30T11:56:16;95330.03;;;5.72;100.00
48077;BME280;33854;57.708;12.008;2023-01-30T11:58:57;95334.25;;;5.73;100.00
48077;BME280;33854;57.708;12.008;2023-01-30T12:01:27;95317.38;;;5.77;100.00
48077;BME280;33854;57.708;12.008;2023-01-30T12:03:55;95353.16;;;5.73;100.00
48077;BME280;33854;57.708;12.008;2023-01-30T12:06:30;95360.84;;;5.82;100.00
48077;BME280;33854;57.708;12.008;2023-01-30T12:08:56;95388.06;;;5.69;100.00
48077;BME280;33854;57.708;12.008;2023-01-30T12:11:28;95382.63;;;5.64;100.00
48077;BME280;33854;57.708;12.008;2023-01-30T12:14:41;95367.97;;;5.88;100.00
48077;BME280;33854;57.708;12.008;2023-01-30T12:17:15;95354.28;;;6.62;100.00
48077;BME280;33854;57.708;12.008;2023-01-30T12:19:57;95429.47;;;7.20;100.00
48077;BME280;33854;57.708;12.008;2023-01-30T12:28:13;95483.22;;;7.70;100.00
48077;BME280;33854;57.708;12.008;2023-01-30T12:30:49;95461.97;;;8.11;100.00
48077;BME280;33854;57.708;12.008;2023-01-30T12:33:16;95477.41;;;8.69;100.00
48077;BME280;33854;57.708;12.008;2023-01-30T12:46:35;95819.75;;;9.76;100.00
48077;BME280;33854;57.708;12.008;2023-01-30T12:49:38;95872.66;;;9.33;100.00
48077;BME280;33854;57.708;12.008;2023-01-30T12:55:27;95862.81;;;9.79;100.00
48077;BME280;33854;57.708;12.008;2023-01-30T13:06:14;96192.78;;;10.51;100.00
48077;BME280;33854;57.708;12.008;2023-01-30T13:09:02;96241.34;;;10.67;100.00
48077;BME280;33854;57.708;12.008;2023-01-30T13:19:50;96905.16;;;10.19;100.00
48077;BME280;33854;57.708;12.008;2023-01-30T13:22:33;96932.25;;;10.59;100.00
48077;BME280;33854;57.708;12.008;2023-01-30T13:27:57;97025.19;;;10.84;100.00
48077;BME280;33854;57.708;12.008;2023-01-30T13:30:24;97019.78;;;11.42;100.00
48077;BME280;33854;57.708;12.008;2023-01-30T13:32:57;97172.00;;;11.26;100.00
48077;BME280;33854;57.708;12.008;2023-01-30T13:35:30;97239.00;;;12.00;100.00
48077;BME280;33854;57.708;12.008;2023-01-30T13:37:56;97324.00;;;11.62;100.00
48077;BME280;33854;57.708;12.008;2023-01-30T13:40:38;97324.72;;;11.72;100.00
48077;BME280;33854;57.708;12.008;2023-01-30T13:45:36;97334.38;;;11.88;100.00
48077;BME280;33854;57.708;12.008;2023-01-30T13:49:05;97397.75;;;11.98;100.00
48077;BME280;33854;57.708;12.008;2023-01-30T13:51:37;97430.41;;;11.26;100.00
48077;BME280;33854;57.708;12.008;2023-01-30T13:57:38;97563.97;;;11.65;100.00
48077;BME280;33854;57.708;12.008;2023-01-30T14:11:27;98435.00;;;12.70;100.00
48077;BME280;33854;57.708;12.008;2023-01-30T14:14:29;98649.59;;;12.70;100.00
48077;BME280;33854;57.708;12.008;2023-01-30T14:17:14;98689.31;;;11.41;100.00
48077;BME280;33854;57.708;12.008;2023-01-30T14:32:58;98735.63;;;10.96;100.00
48077;BME280;33854;57.708;12.008;2023-01-30T14:35:33;98712.53;;;10.47;100.00
48077;BME280;33854;57.708;12.008;2023-01-30T14:38:08;98763.50;;;10.84;100.00
48077;BME280;33854;57.708;12.008;2023-01-30T14:40:35;98774.53;;;10.77;100.00
48077;BME280;33854;57.708;12.008;2023-01-30T14:51:18;98842.13;;;10.69;100.00
48077;BME280;33854;57.708;12.008;2023-01-30T15:04:31;98568.47;;;6.88;100.00
48077;BME280;33854;57.708;12.008;2023-01-30T15:07:06;98480.25;;;6.63;100.00
48077;BME280;33854;57.708;12.008;2023-01-30T15:09:35;98351.28;;;6.41;100.00
48077;BME280;33854;57.708;12.008;2023-01-30T15:12:14;98244.84;;;6.31;100.00
48077;BME280;33854;57.708;12.008;2023-01-30T15:15:07;98212.03;;;6.19;100.00
48077;BME280;33854;57.708;12.008;2023-01-30T15:20:18;98139.09;;;6.00;100.00
48077;BME280;33854;57.708;12.008;2023-01-30T15:25:38;97662.91;;;5.88;100.00
48077;BME280;33854;57.708;12.008;2023-01-30T15:31:07;97582.50;;;5.78;100.00
48077;BME280;33854;57.708;12.008;2023-01-30T15:33:42;97557.56;;;5.66;100.00
48077;BME280;33854;57.708;12.008;2023-01-30T15:36:33;97563.56;;;5.66;100.00
48077;BME280;33854;57.708;12.008;2023-01-30T15:41:30;97547.13;;;5.56;100.00